Time;durP1;ratioP1;P1;durP2;ratioP2;P2;SDS_P1;SDS_P2;PMS_P1;PMS_P2;Temp;Humidity;BMP_temperature;BMP_pressure;BME280_temperature;BME280_humidity;BME280_pressure;Samples;Min_cycle;Max_cycle;Signal;HPM_P1;HPM_P2
2022/08/21 06:18:16;;;;;;;5.67;3.43;;;22.00;99.90;;;;;;5131807;27;20278;-78
2022/08/21 06:20:43;;;;;;;7.53;4.00;;;22.60;99.90;;;;;;5118009;28;20444;-80
2022/08/21 06:23:08;;;;;;;9.70;3.70;;;22.00;99.90;;;;;;5132084;27;20625;-80
2022/08/21 06:25:35;;;;;;;6.33;3.90;;;21.50;99.90;;;;;;5131601;27;20946;-79
2022/08/21 06:28:05;;;;;;;9.10;3.57;;;20.80;99.90;;;;;;5132020;27;20179;-79
2022/08/21 06:30:32;;;;;;;6.73;4.13;;;19.90;99.90;;;;;;5131615;27;20916;-79
2022/08/21 06:32:58;;;;;;;6.40;4.10;;;19.20;99.90;;;;;;5131528;27;20765;-78
2022/08/21 06:35:24;;;;;;;5.77;4.00;;;18.80;99.90;;;;;;5131256;27;20405;-78
2022/08/21 06:37:50;;;;;;;9.43;3.63;;;18.10;99.90;;;;;;5131500;27;20172;-80
2022/08/21 06:40:16;;;;;;;6.30;3.30;;;17.50;99.90;;;;;;5130766;27;20436;-79
2022/08/21 06:42:42;;;;;;;8.03;3.60;;;17.30;99.90;;;;;;5131330;27;20764;-79
2022/08/21 06:45:08;;;;;;;7.00;4.23;;;17.50;99.90;;;;;;5131353;27;20396;-79
2022/08/21 06:47:34;;;;;;;6.70;3.70;;;17.70;99.90;;;;;;5130942;27;20206;-79
2022/08/21 06:50:00;;;;;;;10.83;4.60;;;17.50;99.90;;;;;;5130767;27;20773;-79
2022/08/21 06:52:25;;;;;;;6.13;3.97;;;17.60;99.90;;;;;;5129837;28;20207;-80
2022/08/21 06:54:51;;;;;;;6.10;4.20;;;17.50;99.90;;;;;;5129682;28;20209;-79
2022/08/21 06:57:16;;;;;;;14.40;4.33;;;17.60;99.90;;;;;;5130953;27;20180;-79
2022/08/21 06:59:42;;;;;;;6.93;3.80;;;17.80;99.90;;;;;;5130474;27;20179;-79
2022/08/21 07:02:07;;;;;;;7.20;3.10;;;17.90;99.90;;;;;;5130779;27;20206;-79
2022/08/21 07:04:33;;;;;;;6.93;3.43;;;18.00;99.90;;;;;;5130924;27;20533;-79
2022/08/21 07:06:59;;;;;;;8.43;3.47;;;17.80;99.90;;;;;;5131158;27;20214;-78
2022/08/21 07:09:24;;;;;;;6.47;4.07;;;17.60;99.90;;;;;;5131146;27;20182;-79
2022/08/21 07:11:53;;;;;;;5.03;3.47;;;17.90;99.90;;;;;;5129066;28;20561;-79
2022/08/21 07:14:19;;;;;;;7.20;3.37;;;17.90;99.90;;;;;;5130817;27;20180;-79
2022/08/21 07:16:44;;;;;;;13.10;3.43;;;17.80;99.90;;;;;;5130720;27;20766;-79
2022/08/21 07:19:10;;;;;;;6.47;3.10;;;17.70;99.90;;;;;;5130636;27;20452;-79
2022/08/21 07:21:36;;;;;;;6.80;3.17;;;17.70;99.90;;;;;;5130265;27;20551;-79
2022/08/21 07:24:02;;;;;;;6.70;3.27;;;17.80;99.90;;;;;;5130351;27;20649;-79
2022/08/21 07:26:28;;;;;;;7.07;4.33;;;17.80;99.90;;;;;;5130471;27;20255;-79
2022/08/21 07:28:54;;;;;;;7.20;3.30;;;18.00;99.90;;;;;;5120176;27;20415;-79
2022/08/21 07:31:22;;;;;;;10.07;3.77;;;18.10;99.90;;;;;;5116321;28;20230;-79
2022/08/21 07:33:48;;;;;;;6.47;2.83;;;18.10;99.90;;;;;;5116643;28;20392;-79
2022/08/21 07:36:15;;;;;;;6.20;3.10;;;18.10;99.90;;;;;;5116589;27;20385;-79
2022/08/21 07:38:40;;;;;;;5.27;3.60;;;18.30;99.90;;;;;;5116481;28;20429;-79
2022/08/21 07:41:28;;;;;;;8.07;3.40;;;18.60;99.90;;;;;;5116163;28;20437;-78
2022/08/21 07:43:55;;;;;;;3.90;2.07;;;18.60;99.90;;;;;;5116660;28;20180;-78
2022/08/21 07:46:21;;;;;;;11.03;3.07;;;18.60;99.90;;;;;;5116490;27;20519;-79
2022/08/21 07:48:46;;;;;;;4.60;2.77;;;18.60;99.90;;;;;;5116722;28;20389;-79
2022/08/21 07:51:14;;;;;;;16.03;2.30;;;18.80;99.90;;;;;;5116022;28;20445;-78
2022/08/21 07:53:39;;;;;;;4.80;2.80;;;18.90;99.90;;;;;;5115295;28;20279;-78
2022/08/21 07:56:07;;;;;;;9.07;4.00;;;18.90;99.90;;;;;;5116070;28;20498;-78
2022/08/21 07:58:34;;;;;;;10.90;2.37;;;19.00;99.90;;;;;;5114890;28;20914;-78
2022/08/21 08:01:51;;;;;;;;;;;;;;;;;;;;;
2022/08/21 08:04:37;;;;;;;8.07;2.17;;;19.20;99.90;;;;;;5034550;28;20439;-78
2022/08/21 08:11:54;;;;;;;7.10;2.40;;;19.40;99.90;;;;;;5034785;28;20440;-77
2022/08/21 08:14:30;;;;;;;11.03;2.73;;;19.70;99.90;;;;;;5026036;28;20424;-78
2022/08/21 08:17:13;;;;;;;5.73;2.37;;;19.80;99.90;;;;;;5035478;28;20400;-78
2022/08/21 08:22:21;;;;;;;9.70;2.10;;;20.60;99.90;;;;;;5099990;22;20901;-78
2022/08/21 08:24:48;;;;;;;3.77;1.50;;;20.90;99.90;;;;;;5035185;28;20411;-78
2022/08/21 08:27:14;;;;;;;4.17;1.70;;;21.10;99.90;;;;;;5035185;28;20541;-78
2022/08/21 08:29:40;;;;;;;2.33;1.30;;;21.50;99.90;;;;;;5033875;28;20405;-82
2022/08/21 08:32:07;;;;;;;3.60;1.53;;;21.60;99.90;;;;;;5033802;28;20556;-81
2022/08/21 08:34:36;;;;;;;5.00;1.60;;;21.80;99.90;;;;;;5033484;28;20183;-83
2022/08/21 08:37:03;;;;;;;3.13;1.30;;;21.90;99.90;;;;;;5035587;28;20417;-82
2022/08/21 08:39:28;;;;;;;4.93;1.60;;;23.00;99.90;;;;;;5033094;28;20428;-79
2022/08/21 08:42:07;;;;;;;4.37;1.43;;;22.90;99.90;;;;;;5050021;22;20504;-78
2022/08/21 08:44:34;;;;;;;2.50;1.10;;;23.00;99.90;;;;;;5033097;28;20432;-77
2022/08/21 08:47:01;;;;;;;2.63;1.20;;;23.10;99.90;;;;;;5028875;28;20984;-78
2022/08/21 08:49:30;;;;;;;3.97;1.67;;;23.10;99.90;;;;;;5034509;28;20459;-78
2022/08/21 08:52:07;;;;;;;6.10;1.53;;;22.90;99.90;;;;;;5034480;28;20531;-83
2022/08/21 08:54:42;;;;;;;7.20;1.73;;;23.20;99.90;;;;;;5034870;28;20443;-82
2022/08/21 08:57:15;;;;;;;4.80;1.50;;;23.60;99.90;;;;;;5034866;28;20415;-87
2022/08/21 08:59:43;;;;;;;6.97;1.77;;;23.40;99.90;;;;;;5034732;28;20777;-87
2022/08/21 09:02:12;;;;;;;5.27;1.67;;;23.30;99.90;;;;;;5034570;28;20498;-83
2022/08/21 09:04:39;;;;;;;5.03;2.03;;;23.60;99.90;;;;;;5034281;28;20496;-84
2022/08/21 09:07:26;;;;;;;4.90;1.60;;;23.70;99.90;;;;;;5035906;28;20533;-80
2022/08/21 09:10:04;;;;;;;5.60;1.97;;;23.70;99.90;;;;;;5033293;28;20432;-82
2022/08/21 09:12:32;;;;;;;9.60;2.30;;;24.30;99.90;;;;;;5034287;28;20401;-84
2022/08/21 09:15:11;;;;;;;5.17;1.90;;;24.20;99.90;;;;;;5033373;28;20428;-83
2022/08/21 09:18:04;;;;;;;8.00;1.83;;;24.70;99.90;;;;;;5034546;28;20401;-82
2022/08/21 09:23:35;;;;;;;6.50;2.07;;;24.70;99.90;;;;;;4907742;26;20471;-85
2022/08/21 09:29:47;;;;;;;4.00;1.93;;;25.10;99.90;;;;;;5011825;28;20448;-81
2022/08/21 09:32:55;;;;;;;5.53;1.60;;;26.00;99.90;;;;;;5012417;28;21000;-83
2022/08/21 09:35:24;;;;;;;5.57;1.97;;;25.30;99.90;;;;;;4973058;28;20416;-85
2022/08/21 09:41:11;;;;;;;7.97;2.20;;;24.40;99.90;;;;;;5041959;28;20432;-81
2022/08/21 09:44:06;;;;;;;5.57;1.93;;;25.20;99.90;;;;;;5053944;28;20412;-83
2022/08/21 09:52:22;;;;;;;5.13;1.70;;;26.60;99.90;;;;;;5130688;22;20475;-83
2022/08/21 09:54:52;;;;;;;7.50;1.53;;;26.30;99.90;;;;;;5052030;28;20423;-83
2022/08/21 09:57:39;;;;;;;7.27;2.27;;;26.60;99.90;;;;;;5053520;28;20521;-84
2022/08/21 10:00:32;;;;;;;6.20;1.97;;;27.30;99.90;;;;;;5053597;28;20398;-84
2022/08/21 10:03:27;;;;;;;6.07;1.73;;;27.80;99.90;;;;;;5051606;28;20793;-82
2022/08/21 10:05:54;;;;;;;8.00;1.67;;;28.60;99.90;;;;;;5044770;28;20436;-86
2022/08/21 10:08:23;;;;;;;4.70;2.00;;;28.60;99.90;;;;;;5052288;28;20453;-80
2022/08/21 10:19:19;;;;;;;7.30;1.83;;;28.40;99.90;;;;;;5031894;28;20964;-81
2022/08/21 10:26:51;;;;;;;3.37;1.43;;;28.50;99.90;;;;;;5031506;28;20510;-81
2022/08/21 10:29:40;;;;;;;3.33;1.63;;;28.50;99.90;;;;;;5032989;28;20405;-81
2022/08/21 10:32:19;;;;;;;4.50;1.77;;;27.60;99.90;;;;;;5033268;28;20921;-79
2022/08/21 10:35:07;;;;;;;3.90;1.50;;;27.60;99.90;;;;;;5032992;28;20404;-80
2022/08/21 10:38:04;;;;;;;2.77;1.47;;;27.00;99.90;;;;;;5033149;28;20460;-81
2022/08/21 10:40:53;;;;;;;4.60;2.33;;;27.60;99.90;;;;;;5032804;28;20425;-81
2022/08/21 10:43:41;;;;;;;7.63;2.00;;;27.20;99.90;;;;;;5033064;28;20980;-81
2022/08/21 10:46:13;;;;;;;8.37;2.17;;;27.30;99.90;;;;;;5033145;28;20417;-81
2022/08/21 10:48:51;;;;;;;3.97;1.63;;;26.30;99.90;;;;;;5033208;28;20893;-81
2022/08/21 10:51:38;;;;;;;6.50;1.67;;;25.80;99.90;;;;;;5032667;28;20432;-81
2022/08/21 10:54:22;;;;;;;4.43;1.57;;;25.80;99.90;;;;;;5033205;28;20405;-80
2022/08/21 10:56:51;;;;;;;2.50;1.63;;;25.70;99.90;;;;;;5033232;28;20449;-81
2022/08/21 10:59:33;;;;;;;5.23;1.93;;;26.60;99.90;;;;;;5032861;28;20821;-80
2022/08/21 11:02:23;;;;;;;4.57;1.67;;;26.00;99.90;;;;;;5033085;28;20424;-80
2022/08/21 11:04:53;;;;;;;4.80;1.80;;;26.60;99.90;;;;;;5051977;28;20424;-81
2022/08/21 11:07:47;;;;;;;2.70;1.30;;;27.10;99.90;;;;;;5043387;28;20413;-82
2022/08/21 11:10:33;;;;;;;2.90;1.50;;;27.50;99.90;;;;;;5016668;28;20497;-80
2022/08/21 11:13:05;;;;;;;2.80;1.40;;;27.30;99.90;;;;;;5016852;28;20410;-80
2022/08/21 11:15:42;;;;;;;3.10;1.90;;;27.70;99.90;;;;;;5015424;28;20433;-79
2022/08/21 11:18:14;;;;;;;3.93;2.03;;;28.70;99.90;;;;;;5016635;28;20530;-82
2022/08/21 11:20:59;;;;;;;4.00;1.63;;;27.80;99.90;;;;;;5016131;28;20433;-80
2022/08/21 11:23:35;;;;;;;5.07;1.60;;;27.70;99.90;;;;;;5016360;28;20410;-80
2022/08/21 11:26:09;;;;;;;6.87;1.97;;;27.10;99.90;;;;;;5029796;28;20515;-80
2022/08/21 11:28:45;;;;;;;5.30;2.17;;;27.30;99.90;;;;;;5036344;28;20962;-80
2022/08/21 11:31:24;;;;;;;6.30;1.90;;;27.20;99.90;;;;;;5036267;28;20543;-83
2022/08/21 11:34:06;;;;;;;4.20;1.50;;;26.70;99.90;;;;;;5036421;28;20433;-81
2022/08/21 11:36:51;;;;;;;6.27;1.50;;;27.30;99.90;;;;;;5045090;28;20452;-81
2022/08/21 11:39:27;;;;;;;3.67;2.00;;;28.00;99.90;;;;;;5036732;28;20405;-81
2022/08/21 11:42:22;;;;;;;3.83;1.60;;;28.80;99.90;;;;;;5046382;28;20447;-81
2022/08/21 11:45:10;;;;;;;3.10;1.30;;;29.20;99.90;;;;;;5056195;28;20416;-81
2022/08/21 11:48:00;;;;;;;5.60;1.70;;;28.80;99.90;;;;;;5056058;28;20416;-80
2022/08/21 11:50:31;;;;;;;5.10;2.00;;;28.50;99.90;;;;;;5056019;28;20432;-80
2022/08/21 11:53:11;;;;;;;5.00;2.00;;;29.00;99.90;;;;;;5056622;28;20462;-82
2022/08/21 11:55:43;;;;;;;5.97;2.10;;;29.60;99.90;;;;;;5054700;28;20833;-80
2022/08/21 11:58:28;;;;;;;4.30;1.63;;;30.20;99.90;;;;;;5055647;28;20459;-80
2022/08/21 12:01:19;;;;;;;4.90;1.93;;;30.60;99.90;;;;;;5054149;28;20450;-82
2022/08/21 12:03:56;;;;;;;6.60;2.30;;;29.90;99.90;;;;;;5055311;28;20424;-82
2022/08/21 12:06:35;;;;;;;4.00;1.80;;;30.00;99.90;;;;;;5055708;28;20415;-80
2022/08/21 12:09:11;;;;;;;2.73;1.40;;;29.80;99.90;;;;;;5054261;28;20419;-81
2022/08/21 12:11:50;;;;;;;12.27;2.60;;;29.60;99.90;;;;;;5053590;28;20443;-80
2022/08/21 12:14:18;;;;;;;5.00;1.80;;;29.40;99.90;;;;;;5053274;28;20866;-81
2022/08/21 12:16:49;;;;;;;5.40;1.90;;;29.70;99.90;;;;;;5044355;28;20463;-82
2022/08/21 12:19:20;;;;;;;4.37;1.50;;;30.00;99.70;;;;;;5046978;28;20497;-80
2022/08/21 12:22:19;;;;;;;4.93;1.60;;;30.20;99.60;;;;;;5063486;28;20432;-79
2022/08/21 12:24:48;;;;;;;3.97;1.80;;;29.80;99.50;;;;;;5008207;28;20972;-79
2022/08/21 12:27:19;;;;;;;4.90;2.13;;;30.00;99.90;;;;;;5033908;28;20786;-80
2022/08/21 12:29:48;;;;;;;4.73;1.70;;;30.30;99.10;;;;;;5033291;28;20772;-80
2022/08/21 12:32:14;;;;;;;7.43;1.90;;;30.60;99.90;;;;;;5033491;28;21002;-81
2022/08/21 12:34:52;;;;;;;4.83;1.57;;;30.20;98.40;;;;;;5036089;28;20570;-82
2022/08/21 12:37:46;;;;;;;5.20;2.00;;;30.30;99.60;;;;;;5033564;28;20634;-78
2022/08/21 12:40:51;;;;;;;6.63;2.10;;;30.60;98.60;;;;;;4998870;28;20459;-83
2022/08/21 12:43:33;;;;;;;3.83;1.60;;;31.00;96.80;;;;;;5021619;28;20511;-80
2022/08/21 12:46:00;;;;;;;3.10;1.53;;;30.70;96.40;;;;;;5033377;28;20531;-82
2022/08/21 12:48:38;;;;;;;5.73;1.90;;;29.70;97.90;;;;;;5034508;28;20439;-82
2022/08/21 12:51:10;;;;;;;3.00;1.50;;;30.20;98.00;;;;;;5034419;28;20504;-80
2022/08/21 12:53:39;;;;;;;5.90;1.90;;;30.50;97.00;;;;;;5034668;28;20504;-83
2022/08/21 12:56:12;;;;;;;4.00;2.03;;;30.50;96.90;;;;;;5034786;28;20401;-84
2022/08/21 12:58:44;;;;;;;9.50;2.20;;;30.50;97.00;;;;;;5036379;28;20405;-84
2022/08/21 13:01:36;;;;;;;9.57;2.20;;;30.30;95.30;;;;;;5035722;28;20417;-83
2022/08/21 13:04:09;;;;;;;5.30;1.80;;;30.20;95.40;;;;;;5033226;28;20500;-83
2022/08/21 13:06:52;;;;;;;5.00;1.70;;;30.30;95.60;;;;;;5034494;28;20519;-84
2022/08/21 13:09:21;;;;;;;4.77;2.00;;;30.50;95.90;;;;;;5034405;28;20405;-82
2022/08/21 13:11:48;;;;;;;7.13;2.03;;;30.50;94.80;;;;;;5040117;28;20836;-84
2022/08/21 13:14:37;;;;;;;5.80;1.83;;;30.10;95.50;;;;;;5052554;28;20427;-84
2022/08/21 13:17:05;;;;;;;5.63;1.90;;;30.00;95.80;;;;;;5054127;28;20982;-82
2022/08/21 13:19:31;;;;;;;5.17;1.60;;;30.00;95.90;;;;;;5053754;28;20409;-82
2022/08/21 13:21:58;;;;;;;4.90;1.83;;;30.00;95.70;;;;;;5053887;28;20489;-86
2022/08/21 13:24:26;;;;;;;3.30;1.50;;;29.90;94.30;;;;;;5053737;28;20419;-85
2022/08/21 13:26:53;;;;;;;5.93;1.80;;;29.80;95.10;;;;;;5053657;28;20502;-83
2022/08/21 13:29:21;;;;;;;4.87;1.77;;;29.80;94.50;;;;;;5053888;28;20408;-84
2022/08/21 13:32:00;;;;;;;5.80;2.00;;;29.90;93.90;;;;;;5053748;28;20435;-84
2022/08/21 13:34:30;;;;;;;4.97;1.80;;;30.50;93.60;;;;;;5050588;28;20460;-85
2022/08/21 13:37:03;;;;;;;2.30;1.37;;;30.50;93.40;;;;;;5043561;28;20464;-83
2022/08/21 13:39:29;;;;;;;3.90;1.40;;;30.50;93.00;;;;;;5040826;28;20881;-85
2022/08/21 13:41:58;;;;;;;2.33;1.30;;;30.80;91.80;;;;;;5041907;28;20440;-84
2022/08/21 13:44:31;;;;;;;3.87;1.50;;;30.80;91.80;;;;;;5041851;28;20477;-85
2022/08/21 13:47:00;;;;;;;3.60;1.40;;;30.70;90.50;;;;;;5045081;28;20419;-84
2022/08/21 13:49:47;;;;;;;2.30;1.40;;;30.70;91.70;;;;;;5037143;28;20408;-81
2022/08/21 13:52:22;;;;;;;3.13;1.40;;;31.00;90.70;;;;;;5041247;28;20432;-84
2022/08/21 13:55:12;;;;;;;3.47;1.40;;;30.90;90.00;;;;;;5048686;28;20415;-86
2022/08/21 13:57:37;;;;;;;4.00;1.30;;;30.90;89.80;;;;;;5053205;28;20825;-86
2022/08/21 14:00:16;;;;;;;3.67;1.40;;;30.60;90.30;;;;;;5035584;28;20424;-87
2022/08/21 14:02:45;;;;;;;2.00;1.20;;;30.60;90.10;;;;;;5032080;28;20174;-86
2022/08/21 14:05:26;;;;;;;8.43;1.53;;;30.50;90.00;;;;;;5034261;28;20405;-86
2022/08/21 14:08:06;;;;;;;3.90;1.63;;;29.90;89.20;;;;;;5034133;28;20419;-86
2022/08/21 14:10:36;;;;;;;4.70;1.70;;;29.30;90.70;;;;;;5031883;28;20444;-89
2022/08/21 14:13:05;;;;;;;2.73;1.20;;;29.00;91.10;;;;;;5033844;28;20416;-86
2022/08/21 14:15:33;;;;;;;4.50;1.60;;;28.80;91.80;;;;;;5033891;28;20413;-86
2022/08/21 14:18:16;;;;;;;3.33;1.40;;;28.60;91.20;;;;;;5033425;28;20471;-87
2022/08/21 14:20:43;;;;;;;3.80;1.50;;;28.80;92.00;;;;;;5033371;28;20425;-85
2022/08/21 14:23:08;;;;;;;2.90;1.50;;;28.70;91.90;;;;;;5034292;28;20414;-86
2022/08/21 14:25:43;;;;;;;3.50;1.37;;;28.20;92.20;;;;;;5033515;28;20448;-88
2022/08/21 14:28:33;;;;;;;2.70;1.30;;;27.80;93.00;;;;;;5033173;28;20536;-89
2022/08/21 14:31:12;;;;;;;4.20;1.40;;;27.90;92.30;;;;;;5037363;28;20463;-84
2022/08/21 14:33:40;;;;;;;5.83;1.87;;;27.70;93.70;;;;;;5037843;28;20501;-84
2022/08/21 14:36:06;;;;;;;2.60;1.23;;;27.60;93.10;;;;;;5041133;28;20928;-84
2022/08/21 14:38:36;;;;;;;4.13;1.60;;;27.60;93.80;;;;;;5044896;28;20435;-84
2022/08/21 14:41:10;;;;;;;2.83;1.10;;;27.50;94.40;;;;;;5042877;28;20425;-85
2022/08/21 14:43:36;;;;;;;3.07;1.60;;;27.30;94.70;;;;;;5050242;28;20768;-84
2022/08/21 14:46:02;;;;;;;3.97;1.63;;;27.00;95.20;;;;;;5047215;28;20416;-85
2022/08/21 14:48:28;;;;;;;2.70;1.37;;;26.80;95.20;;;;;;5049971;28;20448;-85
2022/08/21 14:50:54;;;;;;;3.13;1.20;;;26.60;95.50;;;;;;5050560;28;20464;-85
2022/08/21 14:53:21;;;;;;;2.40;1.20;;;26.50;96.60;;;;;;5047497;28;20943;-85
2022/08/21 14:56:04;;;;;;;3.37;1.33;;;26.50;97.10;;;;;;5045357;28;20412;-84
2022/08/21 14:58:31;;;;;;;3.13;1.50;;;26.40;96.80;;;;;;5041943;28;20539;-84
2022/08/21 15:00:57;;;;;;;5.10;1.87;;;26.40;96.80;;;;;;5056768;28;20439;-83
2022/08/21 15:03:25;;;;;;;2.70;1.20;;;26.30;97.60;;;;;;5058496;28;20446;-85
2022/08/21 15:05:51;;;;;;;3.80;1.33;;;26.00;97.70;;;;;;5057495;28;20407;-81
2022/08/21 15:08:17;;;;;;;3.43;1.20;;;25.80;99.10;;;;;;5057472;28;20774;-82
2022/08/21 15:10:44;;;;;;;2.90;1.27;;;25.90;99.80;;;;;;5055263;28;20427;-81
2022/08/21 15:13:10;;;;;;;3.03;1.33;;;25.80;99.30;;;;;;5057326;28;20412;-84
2022/08/21 15:15:41;;;;;;;1.90;1.07;;;25.80;99.90;;;;;;5056043;28;20419;-83
2022/08/21 15:18:07;;;;;;;4.00;1.83;;;25.80;99.90;;;;;;5056716;28;20462;-83
2022/08/21 15:20:33;;;;;;;3.10;1.60;;;25.80;99.90;;;;;;5056540;28;20448;-85
2022/08/21 15:22:59;;;;;;;3.23;1.37;;;25.80;99.90;;;;;;5057447;28;20444;-83
2022/08/21 15:25:24;;;;;;;3.30;1.13;;;25.80;99.90;;;;;;5057832;28;20814;-83
2022/08/21 15:27:50;;;;;;;1.83;1.40;;;25.90;99.90;;;;;;5041250;28;20273;-82
2022/08/21 15:30:16;;;;;;;5.10;1.80;;;25.90;99.90;;;;;;5049660;28;20202;-83
2022/08/21 15:32:41;;;;;;;2.30;1.17;;;25.90;98.20;;;;;;5070157;28;20185;-84
2022/08/21 15:35:08;;;;;;;1.77;1.07;;;26.00;98.20;;;;;;5026846;28;20181;-83
2022/08/21 15:37:34;;;;;;;6.60;1.70;;;25.80;97.60;;;;;;5036296;28;20616;-83
2022/08/21 15:40:00;;;;;;;1.40;1.00;;;25.70;97.10;;;;;;5036449;28;20413;-84
2022/08/21 15:42:27;;;;;;;2.60;1.10;;;25.80;97.40;;;;;;5041233;28;20463;-81
2022/08/21 15:44:55;;;;;;;4.90;1.20;;;25.90;95.80;;;;;;5040848;28;20190;-82
2022/08/21 15:47:25;;;;;;;2.73;1.30;;;26.20;95.40;;;;;;5039291;28;20429;-81
2022/08/21 15:49:52;;;;;;;2.80;0.93;;;26.40;94.30;;;;;;5038921;28;20823;-82
2022/08/21 15:52:20;;;;;;;2.70;1.40;;;26.40;95.10;;;;;;5030241;28;20527;-82
2022/08/21 15:54:47;;;;;;;2.33;1.10;;;26.60;94.00;;;;;;5052093;28;20780;-82
2022/08/21 15:57:16;;;;;;;1.93;1.07;;;26.80;93.50;;;;;;5055053;28;20452;-82
2022/08/21 15:59:48;;;;;;;1.50;0.93;;;27.10;93.10;;;;;;5056510;28;20506;-82
2022/08/21 16:02:21;;;;;;;3.50;1.20;;;27.80;92.80;;;;;;5058031;28;20430;-81
2022/08/21 16:04:47;;;;;;;1.80;1.10;;;28.10;91.10;;;;;;5046308;28;20414;-83
2022/08/21 16:07:13;;;;;;;3.30;1.20;;;28.40;91.70;;;;;;5023331;28;20433;-80
2022/08/21 16:09:39;;;;;;;2.30;1.60;;;28.80;91.40;;;;;;5038832;28;20190;-82
2022/08/21 16:12:05;;;;;;;2.10;1.47;;;29.30;90.60;;;;;;5036209;28;20444;-82
2022/08/21 16:14:34;;;;;;;2.83;1.10;;;29.60;87.10;;;;;;5036245;28;20312;-83
2022/08/21 16:16:59;;;;;;;2.50;1.10;;;29.50;86.20;;;;;;5036355;28;20591;-82
2022/08/21 16:19:27;;;;;;;5.47;1.80;;;29.10;87.50;;;;;;5036678;28;20453;-81
2022/08/21 16:21:53;;;;;;;3.57;1.30;;;29.00;88.30;;;;;;5038046;28;20658;-83
2022/08/21 16:24:18;;;;;;;3.20;1.50;;;29.20;87.10;;;;;;5037192;28;20433;-81
2022/08/21 16:26:45;;;;;;;4.30;1.73;;;29.00;88.80;;;;;;5036322;28;20265;-83
2022/08/21 16:29:11;;;;;;;4.17;1.50;;;28.90;88.90;;;;;;5037615;28;20182;-82
2022/08/21 16:31:37;;;;;;;2.63;1.27;;;28.80;89.20;;;;;;5034580;28;20447;-81
2022/08/21 16:34:03;;;;;;;1.93;1.37;;;28.60;89.90;;;;;;5018789;28;20424;-83
2022/08/21 16:36:28;;;;;;;6.30;1.47;;;28.40;90.00;;;;;;5038951;28;20216;-82
2022/08/21 16:38:56;;;;;;;2.53;1.47;;;27.90;90.90;;;;;;5037755;28;20413;-82
2022/08/21 16:41:24;;;;;;;3.30;1.47;;;27.60;92.20;;;;;;5035860;28;20273;-81
2022/08/21 16:43:51;;;;;;;2.90;0.90;;;27.40;92.30;;;;;;5022379;28;20425;-80
2022/08/21 16:46:17;;;;;;;3.07;1.60;;;27.20;92.80;;;;;;5036377;28;20423;-81
2022/08/21 16:48:44;;;;;;;1.93;1.23;;;27.20;93.20;;;;;;5021540;28;20429;-82
2022/08/21 16:51:10;;;;;;;4.90;1.50;;;27.10;93.20;;;;;;5037773;28;20457;-84
2022/08/21 16:53:36;;;;;;;4.07;1.40;;;26.90;94.30;;;;;;5037002;28;20405;-81
2022/08/21 16:56:02;;;;;;;3.17;1.60;;;26.70;94.90;;;;;;5035899;28;20416;-84
2022/08/21 16:58:36;;;;;;;3.67;1.80;;;26.50;95.40;;;;;;5035394;28;20417;-82
2022/08/21 17:01:11;;;;;;;2.73;1.60;;;26.40;96.40;;;;;;5035841;28;20421;-83
2022/08/21 17:03:41;;;;;;;3.20;1.30;;;26.20;98.00;;;;;;5035117;28;20412;-84
2022/08/21 17:06:07;;;;;;;2.60;1.37;;;26.10;99.60;;;;;;5034786;28;20406;-80
2022/08/21 17:08:34;;;;;;;5.33;1.57;;;26.10;99.90;;;;;;5035335;28;20408;-82
2022/08/21 17:11:01;;;;;;;3.30;1.60;;;26.00;99.90;;;;;;5034484;28;20793;-81
2022/08/21 17:13:27;;;;;;;3.30;1.67;;;25.80;99.90;;;;;;5049029;28;20467;-83
2022/08/21 17:15:53;;;;;;;5.33;2.17;;;25.70;99.90;;;;;;5049812;28;20519;-83
2022/08/21 17:18:21;;;;;;;4.40;1.50;;;25.50;99.90;;;;;;5047868;28;20500;-79
2022/08/21 17:20:49;;;;;;;4.27;1.80;;;25.40;99.90;;;;;;5053717;28;20205;-78
2022/08/21 17:23:16;;;;;;;4.40;1.63;;;25.30;99.90;;;;;;5057176;28;20439;-80
2022/08/21 17:25:46;;;;;;;5.50;1.70;;;25.20;99.90;;;;;;5058685;28;20496;-79
2022/08/21 17:28:24;;;;;;;5.70;1.70;;;25.10;99.90;;;;;;5054662;28;20453;-79
2022/08/21 17:30:53;;;;;;;2.57;1.47;;;25.00;99.90;;;;;;5060426;28;20506;-81
2022/08/21 17:33:19;;;;;;;2.60;1.60;;;25.00;99.90;;;;;;5058772;28;20934;-80
2022/08/21 17:35:46;;;;;;;2.43;1.47;;;24.80;99.90;;;;;;5060041;28;20437;-80
2022/08/21 17:38:12;;;;;;;3.87;1.60;;;24.70;99.90;;;;;;5057989;28;20474;-82
2022/08/21 17:40:38;;;;;;;3.70;1.70;;;24.70;99.90;;;;;;5053929;28;20507;-79
2022/08/21 17:43:07;;;;;;;4.13;1.60;;;24.50;99.90;;;;;;5057761;28;20239;-81
2022/08/21 17:45:33;;;;;;;4.20;1.50;;;24.40;99.90;;;;;;5058003;28;20436;-81
2022/08/21 17:47:59;;;;;;;2.50;1.30;;;24.20;99.90;;;;;;5040852;28;20470;-80
2022/08/21 17:50:26;;;;;;;3.93;1.43;;;24.10;99.90;;;;;;5056774;28;20436;-79
2022/08/21 17:52:52;;;;;;;4.20;1.60;;;23.90;99.90;;;;;;5059726;28;20185;-77
2022/08/21 17:55:22;;;;;;;5.10;1.70;;;23.80;99.90;;;;;;5059453;28;20431;-78
2022/08/21 17:57:49;;;;;;;10.17;2.40;;;23.60;99.90;;;;;;5057047;28;20247;-80
2022/08/21 18:00:17;;;;;;;4.20;1.93;;;23.70;99.90;;;;;;5060351;28;20454;-79
2022/08/21 18:02:46;;;;;;;6.90;1.50;;;23.60;99.90;;;;;;5058010;28;20429;-81
2022/08/21 18:05:13;;;;;;;6.43;1.53;;;23.60;99.90;;;;;;5058464;28;20957;-79
2022/08/21 18:07:39;;;;;;;3.67;1.47;;;23.60;99.90;;;;;;5057152;28;20424;-80
2022/08/21 18:10:13;;;;;;;6.13;1.80;;;23.50;99.90;;;;;;5059446;28;20470;-77
2022/08/21 18:12:41;;;;;;;3.00;1.40;;;23.50;99.90;;;;;;5055581;28;20467;-78
2022/08/21 18:15:10;;;;;;;3.40;1.43;;;23.50;99.90;;;;;;5059958;28;20424;-78
2022/08/21 18:17:36;;;;;;;6.00;1.63;;;23.50;99.90;;;;;;5057964;28;20464;-79
2022/08/21 18:20:05;;;;;;;4.37;1.57;;;23.50;99.90;;;;;;5061297;28;20446;-81
2022/08/21 18:22:33;;;;;;;3.43;2.20;;;23.40;99.90;;;;;;5067773;28;20458;-80
2022/08/21 18:24:58;;;;;;;3.10;1.37;;;23.30;99.90;;;;;;5067076;28;20486;-81
2022/08/21 18:27:29;;;;;;;4.80;1.80;;;23.20;99.90;;;;;;5068132;28;20451;-82
2022/08/21 19:00:50;;;;;;;;;;;;;;;;;;;;;
2022/08/21 19:03:11;;;;;;;5.27;1.70;;;22.20;99.90;;;;;;4864005;28;20820;-79
2022/08/21 19:05:38;;;;;;;7.57;2.23;;;21.90;99.90;;;;;;4999210;28;20433;-79
2022/08/21 19:08:04;;;;;;;3.17;1.20;;;21.80;99.90;;;;;;5033089;28;20480;-78
2022/08/21 19:10:30;;;;;;;2.47;1.70;;;21.80;99.90;;;;;;5031232;28;20433;-78
2022/08/21 19:12:59;;;;;;;8.93;2.10;;;21.90;99.90;;;;;;5032979;28;20414;-79
2022/08/21 19:15:28;;;;;;;4.83;1.87;;;21.60;99.90;;;;;;5034695;28;20194;-79
2022/08/21 19:17:54;;;;;;;4.77;1.60;;;21.60;99.90;;;;;;5032631;28;20461;-79
2022/08/21 19:20:40;;;;;;;5.10;2.00;;;21.60;99.90;;;;;;5031192;28;20449;-79
2022/08/21 19:23:08;;;;;;;3.90;1.60;;;21.30;99.90;;;;;;5032069;28;20417;-77
2022/08/21 19:25:35;;;;;;;7.43;1.30;;;21.40;99.90;;;;;;5033969;28;20409;-77
2022/08/21 19:28:08;;;;;;;5.77;1.70;;;21.40;99.90;;;;;;5035183;28;20413;-77
2022/08/21 19:30:38;;;;;;;4.70;1.40;;;21.30;99.90;;;;;;5035781;28;20432;-77
2022/08/21 19:33:08;;;;;;;5.10;1.63;;;21.30;99.90;;;;;;5035251;28;20401;-77
2022/08/21 19:35:34;;;;;;;4.37;1.60;;;21.40;99.90;;;;;;5051260;28;20418;-77
2022/08/21 19:38:00;;;;;;;2.60;1.23;;;21.40;99.90;;;;;;5034699;28;20453;-77
2022/08/21 19:40:25;;;;;;;4.27;1.80;;;21.50;99.90;;;;;;5035514;28;20191;-79
2022/08/21 19:42:51;;;;;;;3.07;1.70;;;21.50;99.90;;;;;;5035867;28;20665;-77
2022/08/21 19:45:17;;;;;;;6.03;2.13;;;21.50;99.90;;;;;;5036122;28;20174;-77
2022/08/21 19:47:48;;;;;;;6.60;2.30;;;21.10;99.90;;;;;;5034403;28;20637;-77
2022/08/21 19:50:14;;;;;;;6.20;1.70;;;20.90;99.90;;;;;;5034562;28;20203;-77
2022/08/21 19:52:40;;;;;;;2.03;1.30;;;20.60;99.90;;;;;;5034223;28;20835;-78
2022/08/21 19:55:09;;;;;;;6.73;1.50;;;20.70;99.90;;;;;;5035633;28;20421;-78
2022/08/21 19:57:40;;;;;;;4.40;1.90;;;20.80;99.90;;;;;;5034336;28;20285;-77
2022/08/21 20:00:08;;;;;;;3.90;1.23;;;20.80;99.90;;;;;;5034243;28;20775;-77
2022/08/21 20:02:34;;;;;;;4.53;1.73;;;20.80;99.90;;;;;;5037274;28;20395;-77
2022/08/21 20:05:00;;;;;;;3.17;1.30;;;20.70;99.90;;;;;;5037857;28;20975;-77
2022/08/21 20:07:26;;;;;;;3.63;1.73;;;20.80;99.90;;;;;;5035751;28;20186;-77
2022/08/21 20:09:51;;;;;;;5.83;1.80;;;20.80;99.90;;;;;;5037988;28;20396;-77
2022/08/21 20:12:18;;;;;;;6.03;1.63;;;20.60;99.90;;;;;;5036330;28;20175;-77
2022/08/21 20:14:46;;;;;;;5.03;1.57;;;20.50;99.90;;;;;;5035320;28;20200;-74
2022/08/21 20:17:15;;;;;;;4.30;1.47;;;20.70;99.90;;;;;;5035583;28;20815;-76
2022/08/21 20:19:43;;;;;;;3.90;1.80;;;20.70;99.90;;;;;;5037847;28;20941;-76
2022/08/21 20:22:09;;;;;;;2.60;1.47;;;20.70;99.90;;;;;;5051952;28;20467;-76
2022/08/21 20:24:35;;;;;;;6.77;1.87;;;20.80;99.90;;;;;;5034964;28;20468;-76
2022/08/21 20:27:02;;;;;;;5.50;1.90;;;20.80;99.90;;;;;;5035620;28;20418;-76
2022/08/21 20:29:29;;;;;;;8.47;1.30;;;20.90;99.90;;;;;;5034906;28;20426;-77
2022/08/21 20:31:56;;;;;;;2.70;1.50;;;20.80;99.90;;;;;;5032391;28;20851;-77
2022/08/21 20:34:21;;;;;;;5.23;1.53;;;20.80;99.90;;;;;;5017328;28;20445;-77